Latest Weather Observations for Scherger

IDQ60801

Issued at 12:35 pm EST Saturday 22 November 2014 (issued every 30 minutes, with the page automatically refreshed every 10 minutes)

About weather observations | Map of weather stations | Latest weather observations for QLD | Other Formats
Station Details ID: 027075 Name: SCHERGER RAAF Lat: -12.62 Lon: 142.09 Height: 39.34 m
Data from the previous 72 hours. | See also: Recent months at Scherger
Date/Time
EST
Temp
°C
App
Temp
°C
Dew
Point
Rel
Hum
%
Delta-T
°C
Wind Press
QNH
hPa
Press
MSL
hPa
Rain
since 9 am
mm
Dir
 
Spd
km/h
Gust
km/h
Spd
kts
Gust
kts
22/12:30pm 35.1 34.6 15.9 31 12.1 ESE 13 20 7 11 1010.0 1009.7 0.0
22/12:00pm 33.8 33.9 17.5 38 10.5 ENE 13 24 7 13 1010.6 1010.3 0.0
22/11:30am 33.6 34.2 18.5 40 9.8 E 13 26 7 14 1011.0 1010.7 0.0
22/11:00am 33.1 35.1 19.9 45 8.8 ENE 9 19 5 10 1011.5 1011.2 0.0
22/10:30am 31.2 31.7 19.2 48 7.8 E 15 17 8 9 1011.9 1011.6 0.0
22/10:00am 29.8 30.3 19.2 53 6.9 SE 15 26 8 14 1012.2 1011.9 0.0
22/09:30am 29.3 29.6 19.6 56 6.3 SE 17 26 9 14 1012.4 1012.1 0.0
22/09:00am 28.3 28.5 20.1 61 5.4 E 19 26 10 14 1012.5 1012.2 0.0
22/08:30am 27.8 29.3 20.6 65 4.8 SE 13 24 7 13 1012.5 1012.2 0.0
22/08:00am 26.3 28.5 20.4 70 3.9 SE 9 15 5 8 1012.5 1012.2 0.0
22/07:30am 25.6 27.5 20.6 74 3.3 SSE 11 17 6 9 1012.4 1012.1 0.0
22/07:00am 24.3 26.0 20.2 78 2.7 SSE 11 19 6 10 1012.6 1012.3 0.0
22/06:30am 23.3 25.1 20.4 84 1.9 S 11 13 6 7 1012.2 1011.9 0.0
22/06:00am 23.0 25.2 20.3 85 1.7 S 9 11 5 6 1011.9 1011.6 0.0
22/05:30am 23.0 25.7 20.3 85 1.7 SE 6 7 3 4 1011.4 1011.1 0.0
22/05:00am 23.1 25.2 20.2 84 1.9 SSE 9 11 5 6 1011.0 1010.7 0.0
22/04:30am 23.3 26.0 20.2 83 2.0 SSE 6 9 3 5 1010.5 1010.2 0.0
22/04:00am 23.5 27.3 20.2 82 2.1 CALM 0 0 0 0 1009.9 1009.6 0.0
22/03:30am 23.7 25.8 20.2 81 2.3 SSE 9 11 5 6 1009.9 1009.6 0.0
22/03:00am 23.9 26.6 20.2 80 2.4 SE 6 7 3 4 1009.8 1009.5 0.0
22/02:30am 24.2 26.7 20.3 79 2.5 SE 7 9 4 5 1010.1 1009.8 0.0
22/02:00am 24.5 27.2 20.2 77 2.8 SE 6 7 3 4 1010.4 1010.1 0.0
22/01:30am 25.0 27.5 20.3 75 3.1 SSE 7 11 4 6 1010.6 1010.3 0.0
22/01:00am 25.3 27.7 20.1 73 3.4 SSE 7 9 4 5 1010.7 1010.4 0.0
22/12:30am 25.7 28.3 20.0 71 3.7 SE 6 7 3 4 1011.0 1010.7 0.0
22/12:00am 26.2 28.6 20.1 69 4.0 E 7 11 4 6 1011.2 1010.9 0.0
 
Date/Time
EST
Temp
°C
App
Temp
°C
Dew
Point
Rel
Hum
%
Delta-T
°C
Wind Press
QNH
hPa
Press
MSL
hPa
Rain
since 9 am
mm
Dir
 
Spd
km/h
Gust
km/h
Spd
kts
Gust
kts
21/11:30pm 26.6 28.5 19.7 66 4.5 ESE 9 15 5 8 1011.6 1011.3 0.0
21/11:00pm 27.0 28.8 19.6 64 4.8 E 9 15 5 8 1011.7 1011.4 0.0
21/10:30pm 27.6 29.2 19.9 63 5.0 ENE 11 19 6 10 1011.7 1011.4 0.0
21/10:00pm 27.9 29.9 19.9 61 5.2 E 9 19 5 10 1011.8 1011.5 0.0
21/09:30pm 28.5 30.4 19.7 59 5.7 ENE 9 19 5 10 1011.4 1011.1 0.0
21/09:00pm 29.3 30.2 19.3 55 6.5 E 13 20 7 11 1011.0 1010.7 0.0
21/08:30pm 30.4 30.6 16.8 44 8.6 E 11 19 6 10 1010.5 1010.2 0.0
21/08:00pm 31.4 30.4 14.5 35 10.3 E 13 24 7 13 1009.9 1009.6 0.0
21/07:30pm 32.2 31.7 13.9 33 11.1 ESE 9 15 5 8 1009.5 1009.2 0.0
21/07:00pm 33.0 32.4 13.6 31 11.8 E 9 17 5 9 1009.0 1008.7 0.0
21/06:30pm 33.9 32.3 13.9 30 12.2 E 15 24 8 13 1008.4 1008.1 0.0
21/06:00pm 34.8 33.6 14.1 28 12.8 E 13 28 7 15 1008.0 1007.7 0.0
21/05:30pm 35.5 33.6 14.2 28 13.2 E 17 28 9 15 1007.7 1007.4 0.0
21/05:00pm 36.1 35.1 14.7 28 13.4 E 13 26 7 14 1007.4 1007.1 0.0
21/04:30pm 36.3 35.3 16.5 31 12.7 E 17 35 9 19 1007.3 1007.0 0.0
21/04:00pm 36.7 36.2 16.8 30 12.8 E 15 24 8 13 1007.2 1006.9 0.0
21/03:30pm 36.5 34.9 16.6 30 12.7 E 20 35 11 19 1007.5 1007.2 0.0
21/03:00pm 36.9 36.3 17.5 32 12.6 E 17 32 9 17 1007.6 1007.3 0.0
21/02:30pm 36.4 35.8 17.5 32 12.3 E 17 32 9 17 1008.0 1007.7 0.0
21/02:00pm 37.2 36.3 18.2 32 12.5 ESE 20 33 11 18 1008.4 1008.1 0.0
21/01:30pm 36.2 36.3 18.3 34 11.7 E 15 32 8 17 1008.8 1008.5 0.0
21/01:00pm 35.5 34.0 18.6 37 11.1 ESE 24 37 13 20 1009.3 1009.0 0.0
21/12:30pm 35.6 36.0 19.9 39 10.5 E 17 33 9 18 1009.9 1009.6 0.0
21/12:00pm 35.0 36.1 20.5 42 9.8 ENE 15 28 8 15 1010.4 1010.1 0.0
21/11:30am 34.1 34.1 20.1 43 9.3 E 20 35 11 19 1010.9 1010.6 0.0
21/11:00am 33.4 32.8 19.8 44 9.0 ESE 22 35 12 19 1011.4 1011.1 0.0
21/10:30am 33.2 33.5 20.4 47 8.6 E 19 30 10 16 1011.7 1011.4 0.0
21/10:00am 32.6 33.5 20.8 49 7.9 E 17 30 9 16 1012.0 1011.7 0.0
21/09:30am 30.9 31.2 20.8 55 6.7 NE 20 28 11 15 1012.3 1012.0 0.0
21/09:00am 30.6 31.2 21.4 58 6.2 ENE 20 33 11 18 1012.4 1012.1 0.0
21/08:30am 29.4 30.7 21.6 63 5.2 E 17 28 9 15 1012.3 1012.0 0.0
21/08:00am 28.7 31.4 22.2 68 4.4 E 11 22 6 12 1012.0 1011.7 0.0
21/07:30am 27.4 30.0 21.9 72 3.7 ENE 11 19 6 10 1011.8 1011.5 0.0
21/07:00am 26.3 29.8 22.2 78 2.8 SE 7 11 4 6 1011.3 1011.0 0.0
21/06:30am 25.0 29.7 21.9 83 2.1 CALM 0 0 0 0 1011.1 1010.8 0.0
21/06:00am 24.5 28.3 21.6 84 1.9 SE 4 7 2 4 1010.6 1010.3 0.0
21/05:30am 24.6 29.2 21.7 84 1.9 CALM 0 2 0 1 1010.1 1009.8 0.0
21/05:00am 24.5 29.0 21.6 84 1.9 CALM 0 0 0 0 1010.0 1009.7 0.0
21/04:30am 24.4 28.9 21.5 84 1.9 CALM 0 0 0 0 1009.8 1009.5 0.0
21/04:00am 24.7 29.1 21.4 82 2.2 CALM 0 2 0 1 1009.7 1009.4 0.0
21/03:30am 24.9 29.3 21.4 81 2.3 CALM 0 0 0 0 1009.7 1009.4 0.0
21/03:00am 25.2 29.7 21.5 80 2.5 CALM 0 0 0 0 1009.9 1009.6 0.0
21/02:30am 25.6 29.8 21.7 79 2.6 E 2 9 1 5 1010.1 1009.8 0.0
21/02:00am 25.7 28.9 21.6 78 2.7 ESE 7 13 4 7 1010.3 1010.0 0.0
21/01:30am 26.0 29.3 21.4 76 3.1 ESE 6 7 3 4 1010.6 1010.3 0.0
21/01:00am 26.3 30.7 21.3 74 3.3 CALM 0 2 0 1 1011.0 1010.7 0.0
21/12:30am 26.7 30.0 21.5 73 3.5 SE 6 9 3 5 1011.4 1011.1 0.0
21/12:00am 27.0 31.0 21.3 71 3.8 E 2 9 1 5 1011.6 1011.3 0.0
 
Date/Time
EST
Temp
°C
App
Temp
°C
Dew
Point
Rel
Hum
%
Delta-T
°C
Wind Press
QNH
hPa
Press
MSL
hPa
Rain
since 9 am
mm
Dir
 
Spd
km/h
Gust
km/h
Spd
kts
Gust
kts
20/11:30pm 27.3 30.2 21.1 69 4.1 E 7 11 4 6 1011.9 1011.6 0.0
20/11:00pm 27.6 30.0 20.9 67 4.4 E 9 13 5 7 1012.0 1011.7 0.0
20/10:30pm 28.0 29.6 20.8 65 4.8 E 13 22 7 12 1011.8 1011.5 0.0
20/10:00pm 28.4 30.4 20.7 63 5.1 E 11 20 6 11 1011.6 1011.3 0.0
20/09:30pm 28.9 30.8 20.6 61 5.5 E 11 19 6 10 1011.5 1011.2 0.0
20/09:00pm 29.5 31.0 20.6 58 5.9 E 13 22 7 12 1011.1 1010.8 0.0
20/08:30pm 30.2 31.3 20.4 55 6.5 E 15 28 8 15 1010.7 1010.4 0.0
20/08:00pm 30.9 32.6 20.2 53 7.1 E 11 22 6 12 1010.1 1009.8 0.0
20/07:30pm 31.7 32.8 19.7 49 7.9 E 13 24 7 13 1009.5 1009.2 0.0
20/07:00pm 32.4 32.3 19.6 46 8.5 E 19 28 10 15 1009.1 1008.8 0.0
20/06:30pm 33.2 33.0 18.5 41 9.6 E 17 28 9 15 1008.6 1008.3 0.0
20/06:00pm 34.3 34.2 17.9 37 10.6 E 15 26 8 14 1008.2 1007.9 0.0
20/05:30pm 35.4 35.6 17.6 35 11.5 E 13 20 7 11 1008.0 1007.7 0.0
20/05:00pm 35.9 34.5 16.6 31 12.4 E 19 30 10 16 1007.8 1007.5 0.0
20/04:30pm 35.9 35.1 16.1 30 12.6 ESE 15 26 8 14 1007.7 1007.4 0.0
20/04:00pm 36.9 36.0 15.9 28 13.4 E 15 24 8 13 1007.8 1007.5 0.0
20/03:30pm 36.4 35.0 15.5 29 13.2 SE 17 22 9 12 1007.9 1007.6 0.0
20/03:00pm 36.9 35.1 15.9 28 13.4 E 20 33 11 18 1007.9 1007.6 0.0
20/02:30pm 37.4 36.0 16.9 30 13.2 SE 20 28 11 15 1008.3 1008.0 0.0
20/02:00pm 36.9 35.8 15.4 28 13.6 ESE 15 28 8 15 1008.6 1008.3 0.0
20/01:30pm 37.1 36.7 16.1 29 13.4 ESE 13 24 7 13 1008.9 1008.6 0.0
20/01:00pm 37.1 35.9 17.1 30 12.9 E 19 35 10 19 1009.5 1009.2 0.0
20/12:30pm 36.6 36.4 17.7 32 12.3 E 15 20 8 11 1010.1 1009.8 0.0
20/12:00pm 35.6 34.7 17.8 35 11.6 E 19 32 10 17 1010.6 1010.3 0.0
20/11:30am 34.5 33.6 18.1 37 10.7 ENE 20 37 11 20 1011.0 1010.7 0.0
20/11:00am 33.9 33.6 19.6 43 9.5 ESE 20 30 11 16 1011.4 1011.1 0.0
20/10:30am 33.4 33.4 20.2 46 8.8 E 20 35 11 19 1012.0 1011.7 0.0
20/10:00am 31.7 31.8 20.0 50 7.7 E 19 35 10 19 1012.3 1012.0 0.0
20/09:30am 30.8 31.6 20.7 55 6.7 E 17 28 9 15 1012.5 1012.2 0.0
20/09:00am 29.5 30.3 21.4 61 5.4 E 19 28 10 15 1012.5 1012.2 0.0
20/08:30am 28.5 29.7 21.5 66 4.7 E 17 26 9 14 1012.5 1012.2 0.0
20/08:00am 27.8 29.6 21.8 70 4.0 ESE 15 26 8 14 1012.3 1012.0 0.0
20/07:30am 26.9 29.7 22.3 76 3.1 ESE 11 17 6 9 1012.0 1011.7 0.0
20/07:00am 25.7 29.2 22.2 81 2.3 ESE 7 13 4 7 1011.5 1011.2 0.0
20/06:30am 24.2 27.7 21.9 87 1.5 SE 6 11 3 6 1011.4 1011.1 0.0
20/06:00am 23.6 28.0 21.3 87 1.5 CALM 0 0 0 0 1011.0 1010.7 0.0
20/05:30am 23.8 28.2 21.3 86 1.6 CALM 0 0 0 0 1010.9 1010.6 0.0
20/05:00am 24.0 28.4 21.3 85 1.8 CALM 0 0 0 0 1010.5 1010.2 0.0
20/04:30am 24.2 27.5 21.5 85 1.8 SSE 6 7 3 4 1010.2 1009.9 0.0
20/04:00am 24.5 28.2 21.4 83 2.1 SSE 4 7 2 4 1010.1 1009.8 0.0
20/03:30am 24.9 28.2 21.4 81 2.3 SE 6 7 3 4 1009.9 1009.6 0.0
20/03:00am 25.0 28.3 21.5 81 2.3 SE 6 9 3 5 1009.9 1009.6 0.0
20/02:30am 25.3 29.7 21.4 79 2.6 CALM 0 0 0 0 1010.1 1009.8 0.0
20/02:00am 25.6 30.1 21.5 78 2.7 CALM 0 0 0 0 1010.6 1010.3 0.0
20/01:30am 26.0 30.4 21.4 76 3.1 CALM 0 0 0 0 1010.7 1010.4 0.0
20/01:00am 26.3 29.3 21.3 74 3.3 E 7 11 4 6 1010.8 1010.5 0.0
20/12:30am 26.6 29.7 21.4 73 3.5 E 7 13 4 7 1011.3 1011.0 0.0
20/12:00am 27.0 30.2 21.3 71 3.8 E 6 11 3 6 1011.7 1011.4 0.0
 
Date/Time
EST
Temp
°C
App
Temp
°C
Dew
Point
Rel
Hum
%
Delta-T
°C
Wind Press
QNH
hPa
Press
MSL
hPa
Rain
since 9 am
mm
Dir
 
Spd
km/h
Gust
km/h
Spd
kts
Gust
kts
19/11:30pm 27.4 30.3 21.0 68 4.2 E 7 17 4 9 1012.3 1012.0 0.0
19/11:00pm 27.8 30.5 20.6 65 4.8 E 7 15 4 8 1012.8 1012.5 0.0
19/10:30pm 28.2 29.3 20.5 63 5.1 E 15 30 8 16 1012.7 1012.4 0.0
19/10:00pm 28.6 30.0 20.3 60 5.5 E 13 22 7 12 1012.7 1012.4 0.0
19/09:30pm 29.1 30.9 20.3 59 5.8 E 11 20 6 11 1012.6 1012.3 0.0
19/09:00pm 29.7 31.7 20.0 56 6.4 ESE 9 17 5 9 1012.1 1011.8 0.0
19/08:30pm 30.3 32.3 19.9 53 6.8 E 9 17 5 9 1011.7 1011.4 0.0
19/08:00pm 30.1 33.5 22.0 62 5.5 NE 7 13 4 7 1011.3 1011.0 0.0
19/07:30pm 29.6 34.5 23.1 68 4.5 WNW 2 9 1 5 1011.0 1010.7 0.0
19/07:00pm 30.4 33.9 22.8 64 5.2 WSW 9 15 5 8 1010.4 1010.1 0.0
19/06:30pm 33.3 34.0 17.9 40 9.9 E 11 19 6 10 1009.5 1009.2 0.0
19/06:00pm 34.2 34.1 17.0 36 11.0 E 13 22 7 12 1008.9 1008.6 0.0
19/05:30pm 34.5 33.0 16.8 34 11.3 E 20 30 11 16 1008.5 1008.2 0.0
19/05:00pm 36.4 36.1 16.5 30 12.7 E 13 22 7 12 1008.2 1007.9 0.0
19/04:30pm 37.0 35.6 15.5 28 13.6 ENE 17 24 9 13 1008.2 1007.9 0.0
19/04:00pm 37.0 36.3 15.5 28 13.6 ENE 13 26 7 14 1008.2 1007.9 0.0
19/03:30pm 37.3 36.2 16.3 29 13.4 E 17 30 9 16 1008.3 1008.0 0.0
19/03:00pm 37.4 36.1 15.8 27 13.7 ENE 17 26 9 14 1008.5 1008.2 0.0
19/02:30pm 36.9 35.5 16.5 30 13.1 E 19 32 10 17 1008.7 1008.4 0.0
19/02:00pm 37.4 36.5 16.9 30 13.2 E 17 26 9 14 1009.0 1008.7 0.0
19/01:30pm 36.4 36.0 18.0 33 12.0 ENE 17 30 9 16 1009.5 1009.2 0.0
19/01:00pm 36.4 36.0 18.0 33 12.0 ENE 17 26 9 14 1010.0 1009.7 0.0

Other Formats:

Comma delimited format used in spreadsheet applications
http://www.bom.gov.au/fwo/IDQ60801/IDQ60801.94171.axf

JavaScript Object Notation format (JSON) in row-major order
http://www.bom.gov.au/fwo/IDQ60801/IDQ60801.94171.json